Latest Weather Observations for Armament Jetty

IDW60901

Issued at 6:21 am WST Sunday 14 August 2022 (issued every 10 minutes, with the page automatically refreshed every 10 minutes)

About weather observations | Map of Perth area stations | Latest observations for Perth area | Other Formats
Station Details ID: 009254 Name: ARMAMENT JETTY Lat: -32.18 Lon: 115.68 Height: 9.0 m
Data from the previous 72 hours. | See also: Recent months for locations in Western Australia
Date/Time
WST
Temp
°C
App
Temp
°C
Dew
Point
°C
Rel
Hum
%
Delta-T
°C
Wind Press
QNH
hPa
Press
MSL
hPa
Rain since
9am
mm
Dir  Spd
km/h
Gust
km/h
Spd
kts
Gust
kts
14/06:00am - - - - - SSW 9 15 5 8 - - -
14/05:30am - - - - - SW 11 13 6 7 - - -
14/05:00am - - - - - SW 11 17 6 9 - - -
14/04:30am - - - - - W 13 17 7 9 - - -
14/04:00am - - - - - W 15 19 8 10 - - -
14/03:30am - - - - - WSW 13 22 7 12 - - -
14/03:00am - - - - - WSW 13 17 7 9 - - -
14/02:30am - - - - - SW 15 19 8 10 - - -
14/02:00am - - - - - WSW 15 20 8 11 - - -
14/01:30am - - - - - WSW 15 19 8 10 - - -
14/01:00am - - - - - SW 11 19 6 10 - - -
14/12:30am - - - - - WSW 30 43 16 23 - - -
14/12:00am - - - - - WSW 22 32 12 17 - - -
 
Date/Time
WST
Temp
°C
App
Temp
°C
Dew
Point
°C
Rel
Hum
%
Delta-T
°C
Wind Press
QNH
hPa
Press
MSL
hPa
Rain since
9am
mm
Dir  Spd
km/h
Gust
km/h
Spd
kts
Gust
kts
13/11:30pm - - - - - WSW 24 33 13 18 - - -
13/11:00pm - - - - - SW 22 32 12 17 - - -
13/10:30pm - - - - - SW 24 32 13 17 - - -
13/10:00pm - - - - - SW 30 37 16 20 - - -
13/09:30pm - - - - - WSW 30 41 16 22 - - -
13/09:00pm - - - - - WSW 33 50 18 27 - - -
13/08:30pm - - - - - WSW 35 48 19 26 - - -
13/08:00pm - - - - - W 35 48 19 26 - - -
13/07:33pm - - - - - W 35 54 19 29 - - -
13/07:30pm - - - - - W 32 46 17 25 - - -
13/07:07pm - - - - - WNW 33 52 18 28 - - -
13/07:00pm - - - - - WNW 32 44 17 24 - - -
13/06:30pm - - - - - W 30 43 16 23 - - -
13/06:00pm - - - - - WNW 32 43 17 23 - - -
13/05:30pm - - - - - W 35 48 19 26 - - -
13/05:20pm - - - - - W 43 59 23 32 - - -
13/05:19pm - - - - - W 43 59 23 32 - - -
13/05:00pm - - - - - WNW 39 57 21 31 - - -
13/04:30pm - - - - - WNW 41 59 22 32 - - -
13/04:25pm - - - - - WNW 39 59 21 32 - - -
13/04:00pm - - - - - WNW 37 54 20 29 - - -
13/03:30pm - - - - - WNW 43 63 23 34 - - -
13/03:02pm - - - - - WNW 32 61 17 33 - - -
13/03:00pm - - - - - WNW 30 43 16 23 - - -
13/02:33pm - - - - - WNW 37 59 20 32 - - -
13/02:30pm - - - - - WNW 35 48 19 26 - - -
13/02:22pm - - - - - WNW 28 48 15 26 - - -
13/02:00pm - - - - - NNW 22 28 12 15 - - -
13/01:30pm - - - - - NNW 46 54 25 29 - - -
13/01:19pm - - - - - NNW 46 65 25 35 - - -
13/01:18pm - - - - - NNW 46 65 25 35 - - -
13/01:15pm - - - - - NNW 50 72 27 39 - - -
13/01:11pm - - - - - NNW 56 74 30 40 - - -
13/01:00pm - - - - - N 65 78 35 42 - - -
13/12:46pm - - - - - N 63 82 34 44 - - -
13/12:30pm - - - - - N 63 78 34 42 - - -
13/12:24pm - - - - - N 57 78 31 42 - - -
13/12:00pm - - - - - N 56 70 30 38 - - -
13/11:38am - - - - - N 56 74 30 40 - - -
13/11:30am - - - - - N 54 63 29 34 - - -
13/11:00am - - - - - N 50 67 27 36 - - -
13/10:30am - - - - - NNE 50 59 27 32 - - -
13/10:00am - - - - - NNE 43 52 23 28 - - -
13/09:30am - - - - - NNE 46 54 25 29 - - -
13/09:00am - - - - - NNE 39 46 21 25 - - -
13/08:30am - - - - - NNE 39 46 21 25 - - -
13/08:00am - - - - - NNE 43 50 23 27 - - -
13/07:30am - - - - - NNE 43 54 23 29 - - -
13/07:00am - - - - - NNE 41 52 22 28 - - -
13/06:30am - - - - - NNE 39 46 21 25 - - -
13/06:00am - - - - - NNE 41 48 22 26 - - -
13/05:30am - - - - - NNE 39 50 21 27 - - -
13/05:00am - - - - - NNE 37 43 20 23 - - -
13/04:30am - - - - - NNE 39 48 21 26 - - -
13/04:00am - - - - - NE 43 50 23 27 - - -
13/03:30am - - - - - NNE 41 48 22 26 - - -
13/03:00am - - - - - NNE 41 50 22 27 - - -
13/02:30am - - - - - NNE 41 50 22 27 - - -
13/02:00am - - - - - NNE 43 50 23 27 - - -
13/01:30am - - - - - NE 41 54 22 29 - - -
13/01:00am - - - - - NE 37 50 20 27 - - -
13/12:30am - - - - - NE 35 39 19 21 - - -
13/12:00am - - - - - NE 32 35 17 19 - - -
 
Date/Time
WST
Temp
°C
App
Temp
°C
Dew
Point
°C
Rel
Hum
%
Delta-T
°C
Wind Press
QNH
hPa
Press
MSL
hPa
Rain since
9am
mm
Dir  Spd
km/h
Gust
km/h
Spd
kts
Gust
kts
12/11:30pm - - - - - NE 33 37 18 20 - - -
12/11:00pm - - - - - NE 33 37 18 20 - - -
12/10:30pm - - - - - NE 32 35 17 19 - - -
12/10:00pm - - - - - NE 30 33 16 18 - - -
12/09:30pm - - - - - NE 26 30 14 16 - - -
12/09:00pm - - - - - NE 26 30 14 16 - - -
12/08:30pm - - - - - NE 24 30 13 16 - - -
12/08:00pm - - - - - ENE 26 28 14 15 - - -
12/07:30pm - - - - - ENE 22 26 12 14 - - -
12/07:00pm - - - - - ENE 19 22 10 12 - - -
12/06:30pm - - - - - NE 20 24 11 13 - - -
12/06:00pm - - - - - NE 24 28 13 15 - - -
12/05:30pm - - - - - NNE 28 30 15 16 - - -
12/05:00pm - - - - - NE 30 32 16 17 - - -
12/04:30pm - - - - - NE 26 30 14 16 - - -
12/04:00pm - - - - - NE 28 32 15 17 - - -
12/03:30pm - - - - - NE 28 32 15 17 - - -
12/03:00pm - - - - - NE 28 32 15 17 - - -
12/02:30pm - - - - - NE 28 33 15 18 - - -
12/02:00pm - - - - - NE 26 30 14 16 - - -
12/01:30pm - - - - - NE 30 32 16 17 - - -
12/01:00pm - - - - - NE 32 35 17 19 - - -
12/12:30pm - - - - - NE 33 39 18 21 - - -
12/12:00pm - - - - - NNE 37 41 20 22 - - -
12/11:30am - - - - - NNE 32 39 17 21 - - -
12/11:00am - - - - - NE 32 37 17 20 - - -
12/10:30am - - - - - NE 35 41 19 22 - - -
12/10:00am - - - - - NE 39 48 21 26 - - -
12/09:30am - - - - - NE 37 43 20 23 - - -
12/09:00am - - - - - NE 35 44 19 24 - - -
12/08:30am - - - - - NE 33 41 18 22 - - -
12/08:00am - - - - - ENE 37 43 20 23 - - -
12/07:30am - - - - - ENE 35 39 19 21 - - -
12/07:00am - - - - - ENE 32 39 17 21 - - -
12/06:30am - - - - - ENE 33 41 18 22 - - -
12/06:00am - - - - - ENE 37 44 20 24 - - -
12/05:30am - - - - - ENE 24 32 13 17 - - -
12/05:00am - - - - - ENE 20 26 11 14 - - -
12/04:30am - - - - - ENE 20 26 11 14 - - -
12/04:00am - - - - - ENE 19 24 10 13 - - -
12/03:30am - - - - - ENE 22 28 12 15 - - -
12/03:00am - - - - - ENE 22 26 12 14 - - -
12/02:30am - - - - - ENE 15 17 8 9 - - -
12/02:00am - - - - - ENE 17 22 9 12 - - -
12/01:30am - - - - - ENE 20 22 11 12 - - -
12/01:00am - - - - - ENE 17 19 9 10 - - -
12/12:30am - - - - - ENE 19 22 10 12 - - -
12/12:00am - - - - - ENE 20 26 11 14 - - -
 
Date/Time
WST
Temp
°C
App
Temp
°C
Dew
Point
°C
Rel
Hum
%
Delta-T
°C
Wind Press
QNH
hPa
Press
MSL
hPa
Rain since
9am
mm
Dir  Spd
km/h
Gust
km/h
Spd
kts
Gust
kts
11/11:30pm - - - - - ENE 22 26 12 14 - - -
11/11:00pm - - - - - ENE 24 28 13 15 - - -
11/10:30pm - - - - - ENE 26 30 14 16 - - -
11/10:00pm - - - - - ENE 22 28 12 15 - - -
11/09:30pm - - - - - ENE 19 22 10 12 - - -
11/09:00pm - - - - - ENE 22 26 12 14 - - -
11/08:30pm - - - - - ENE 22 26 12 14 - - -
11/08:00pm - - - - - SE 15 17 8 9 - - -
11/07:30pm - - - - - S 11 13 6 7 - - -
11/07:00pm - - - - - S 13 13 7 7 - - -
11/06:30pm - - - - - S 13 15 7 8 - - -
11/06:00pm - - - - - SSW 11 15 6 8 - - -
11/05:30pm - - - - - SSW 13 17 7 9 - - -
11/05:00pm - - - - - SW 13 17 7 9 - - -
11/04:30pm - - - - - SW 15 19 8 10 - - -
11/04:00pm - - - - - SW 17 24 9 13 - - -
11/03:30pm - - - - - SW 15 19 8 10 - - -
11/03:00pm - - - - - SW 15 20 8 11 - - -
11/02:30pm - - - - - SW 13 17 7 9 - - -
11/02:00pm - - - - - SSW 9 11 5 6 - - -
11/01:30pm - - - - - S 9 11 5 6 - - -
11/01:00pm - - - - - S 7 9 4 5 - - -
11/12:30pm - - - - - SE 6 9 3 5 - - -
11/12:00pm - - - - - ENE 9 11 5 6 - - -
11/11:30am - - - - - SE 4 7 2 4 - - -
11/11:00am - - - - - SE 7 7 4 4 - - -
11/10:30am - - - - - ESE 9 11 5 6 - - -
11/10:00am - - - - - ESE 9 11 5 6 - - -
11/09:30am - - - - - ESE 11 13 6 7 - - -
11/09:00am - - - - - SE 9 11 5 6 - - -
11/08:30am - - - - - SE 11 15 6 8 - - -
11/08:00am - - - - - ESE 11 13 6 7 - - -
11/07:30am - - - - - ESE 13 13 7 7 - - -
11/07:00am - - - - - ESE 13 15 7 8 - - -
11/06:30am - - - - - SE 15 15 8 8 - - -

Latest Capital City Observations: Canberra | Sydney | Melbourne | Brisbane | Adelaide | Perth | Hobart | Darwin

Other formats

Comma delimited format used in spreadsheet applications
http://www.bom.gov.au/fwo/IDW60901/IDW60901.99254.axf

JavaScript Object Notation format (JSON) in row-major order
http://www.bom.gov.au/fwo/IDW60901/IDW60901.99254.json

Data quality

Most of these data are generated automatically and are frequently updated. Quality checks on data are not normally performed. It is possible for incorrect values to appear. Refer to information at About Latest Weather Observations and please check the disclaimer before using these data.